Kayl, Luxembourg
Current Conditions -  °F | °C
As of 9:20 AM on Thursday 27 Nov 2014 (Local Time) from ELLX Reporting Station
Haze Haze  
Wind Chill: 38°   Ceiling: 300
Heat Index: 41°   Visibility: 0.62mi
Dew Point: 41°   Wind: 5mph
Humidity: 100%   Direction: 70°ENE
Pressure: 29.77"   Gusts: NA
Location:  49.49°N, 6.04°E
Report Text: ELLX 270820Z 07004KT 040V100 1000 R24/P1500N BR SCT001 BKN003 05/05 Q1008 NOSIG
Loading
Personal Weather Stations






























Interactive Weather Map New forecast layout! Learn more

10-Day Weather Forecast

Advertisements
Track Severe Weather on mobile